createdAt,value
2022-07-29T00:00:47.560Z,14.30
2022-07-29T00:03:20.164Z,14.30
2022-07-29T00:05:54.147Z,14.20
2022-07-29T00:08:26.720Z,14.20
2022-07-29T00:10:59.481Z,14.20
2022-07-29T00:13:32.354Z,14.10
2022-07-29T00:16:05.717Z,14.10
2022-07-29T00:18:38.368Z,14.10
2022-07-29T00:21:11.143Z,14.00
2022-07-29T00:23:43.799Z,14.00
2022-07-29T00:26:16.553Z,14.00
2022-07-29T00:28:49.170Z,14.00
2022-07-29T00:31:22.217Z,13.90
2022-07-29T00:33:54.958Z,13.90
2022-07-29T00:36:27.851Z,13.80
2022-07-29T00:39:00.426Z,13.80
2022-07-29T00:41:33.224Z,13.80
2022-07-29T00:44:06.502Z,13.80
2022-07-29T00:46:39.276Z,13.80
2022-07-29T00:49:12.103Z,13.80
2022-07-29T00:51:45.405Z,13.80
2022-07-29T00:54:19.428Z,13.70
2022-07-29T00:56:52.579Z,13.80
2022-07-29T00:59:25.903Z,13.70
2022-07-29T01:02:08.009Z,13.70
2022-07-29T01:04:41.460Z,13.70
2022-07-29T01:07:14.597Z,13.70
2022-07-29T01:09:48.294Z,13.70
2022-07-29T01:12:26.380Z,13.70
2022-07-29T01:15:00.613Z,13.60
2022-07-29T01:17:55.135Z,13.60
2022-07-29T01:21:04.813Z,13.60
2022-07-29T01:23:58.861Z,13.60
2022-07-29T01:26:49.138Z,13.50
2022-07-29T01:29:38.860Z,13.50
2022-07-29T01:32:28.115Z,13.50
2022-07-29T01:35:18.258Z,13.40
2022-07-29T01:38:10.637Z,13.50
2022-07-29T01:40:59.839Z,13.40
2022-07-29T01:43:52.791Z,13.40
2022-07-29T01:46:49.085Z,13.40
2022-07-29T01:49:26.870Z,13.40
2022-07-29T01:52:09.886Z,13.40
2022-07-29T01:54:55.227Z,13.40
2022-07-29T01:57:31.835Z,13.40
2022-07-29T02:00:06.471Z,13.30
2022-07-29T02:02:42.220Z,13.20
2022-07-29T02:05:18.451Z,13.20
2022-07-29T02:07:53.809Z,13.20
2022-07-29T02:10:30.915Z,13.20
2022-07-29T02:13:05.059Z,13.20
2022-07-29T02:15:38.505Z,13.20
2022-07-29T02:18:18.194Z,13.20
2022-07-29T02:20:54.219Z,13.20
2022-07-29T02:23:27.837Z,13.30
2022-07-29T02:26:00.801Z,13.30
2022-07-29T02:28:35.044Z,13.30
2022-07-29T02:31:09.301Z,13.20
2022-07-29T02:33:42.876Z,13.20
2022-07-29T02:36:17.094Z,13.20
2022-07-29T02:38:58.757Z,13.20
2022-07-29T02:41:43.671Z,13.20
2022-07-29T02:44:19.986Z,13.20
2022-07-29T02:47:25.061Z,13.20
2022-07-29T02:50:15.260Z,13.10
2022-07-29T02:53:06.322Z,13.10
2022-07-29T02:55:45.940Z,13.10
2022-07-29T02:58:29.557Z,13.00
2022-07-29T03:01:09.109Z,13.10
2022-07-29T03:03:45.668Z,13.10
2022-07-29T03:06:37.367Z,13.10
2022-07-29T03:09:13.750Z,13.10
2022-07-29T03:11:50.728Z,13.10
2022-07-29T03:14:24.368Z,13.10
2022-07-29T03:16:57.608Z,13.10
2022-07-29T03:19:30.315Z,13.10
2022-07-29T03:22:03.333Z,13.10
2022-07-29T03:24:37.798Z,13.20
2022-07-29T03:27:10.553Z,13.20
2022-07-29T03:29:43.715Z,13.30
2022-07-29T03:32:25.157Z,13.30
2022-07-29T03:34:57.795Z,13.40
2022-07-29T03:37:31.626Z,13.40
2022-07-29T03:40:08.168Z,13.40
2022-07-29T03:42:43.683Z,13.50
2022-07-29T03:45:19.722Z,13.40
2022-07-29T03:48:00.582Z,13.50
2022-07-29T03:50:35.585Z,13.50
2022-07-29T03:53:09.252Z,13.60
2022-07-29T03:55:48.064Z,13.70
2022-07-29T03:58:21.171Z,13.80
2022-07-29T04:00:55.147Z,13.80
2022-07-29T04:03:27.997Z,13.90
2022-07-29T04:06:03.147Z,14.00
2022-07-29T04:08:36.088Z,14.20
2022-07-29T04:11:08.713Z,14.30
2022-07-29T04:13:41.533Z,14.40
2022-07-29T04:16:14.124Z,14.40
2022-07-29T04:18:46.847Z,14.50
2022-07-29T04:21:19.459Z,14.60
2022-07-29T04:23:53.942Z,14.70
2022-07-29T04:26:26.683Z,14.80
2022-07-29T04:28:59.406Z,14.90
2022-07-29T04:31:32.136Z,14.90
2022-07-29T04:34:05.118Z,15.00
2022-07-29T04:36:38.088Z,15.00
2022-07-29T04:39:11.393Z,15.00
2022-07-29T04:41:43.912Z,15.10
2022-07-29T04:44:17.677Z,15.20
2022-07-29T04:46:51.499Z,15.30
2022-07-29T04:49:24.637Z,15.30
2022-07-29T04:51:57.202Z,15.40
2022-07-29T04:54:29.933Z,15.60
2022-07-29T04:57:02.485Z,15.60
2022-07-29T04:59:35.206Z,15.70
2022-07-29T05:02:07.731Z,15.80
2022-07-29T05:04:40.452Z,15.90
2022-07-29T05:07:12.979Z,15.90
2022-07-29T05:09:45.787Z,16.00
2022-07-29T05:12:18.353Z,16.00
2022-07-29T05:14:51.361Z,16.10
2022-07-29T05:17:23.923Z,16.20
2022-07-29T05:19:56.742Z,16.20
2022-07-29T05:22:29.259Z,16.30
2022-07-29T05:25:08.516Z,16.40
2022-07-29T05:27:41.583Z,16.50
2022-07-29T05:30:14.450Z,16.60
2022-07-29T05:32:47.327Z,16.70
2022-07-29T05:35:20.155Z,16.80
2022-07-29T05:37:52.732Z,16.90
2022-07-29T05:40:25.632Z,16.90
2022-07-29T05:42:58.237Z,17.00
2022-07-29T05:45:31.006Z,17.10
2022-07-29T05:48:03.640Z,17.20
2022-07-29T05:50:36.380Z,17.40
2022-07-29T05:53:19.890Z,17.40
2022-07-29T05:55:53.340Z,17.60
2022-07-29T05:58:25.906Z,17.70
2022-07-29T06:01:01.785Z,17.80
2022-07-29T06:03:35.630Z,17.90
2022-07-29T06:06:08.930Z,18.00
2022-07-29T06:08:41.484Z,18.10
2022-07-29T06:11:14.672Z,18.20
2022-07-29T06:13:47.534Z,18.30
2022-07-29T06:16:30.176Z,18.40
2022-07-29T06:19:03.099Z,18.60
2022-07-29T06:21:35.852Z,18.70
2022-07-29T06:24:16.027Z,18.80
2022-07-29T06:26:49.118Z,18.90
2022-07-29T06:29:21.691Z,18.90
2022-07-29T06:31:54.422Z,19.00
2022-07-29T06:34:27.015Z,19.10
2022-07-29T06:36:59.785Z,19.20
2022-07-29T06:39:32.378Z,19.30
2022-07-29T06:42:05.917Z,19.40
2022-07-29T06:44:38.889Z,19.50
2022-07-29T06:47:11.634Z,19.70
2022-07-29T06:49:44.290Z,19.80
2022-07-29T06:52:17.078Z,19.80
2022-07-29T06:54:49.642Z,19.90
2022-07-29T06:57:23.215Z,20.00
2022-07-29T06:59:58.033Z,20.00
2022-07-29T07:02:30.849Z,20.10
2022-07-29T07:05:03.705Z,20.20
2022-07-29T07:07:36.474Z,20.30
2022-07-29T07:10:09.417Z,20.30
2022-07-29T07:12:42.392Z,20.40
2022-07-29T07:15:14.963Z,20.50
2022-07-29T07:17:47.748Z,20.70
2022-07-29T07:20:20.839Z,20.80
2022-07-29T07:22:53.883Z,20.80
2022-07-29T07:25:27.047Z,20.90
2022-07-29T07:27:59.876Z,21.00
2022-07-29T07:30:32.698Z,21.10
2022-07-29T07:33:05.744Z,21.10
2022-07-29T07:35:38.322Z,21.20
2022-07-29T07:38:11.174Z,21.30
2022-07-29T07:40:43.847Z,21.40
2022-07-29T07:43:18.372Z,21.40
2022-07-29T07:46:05.182Z,21.50
2022-07-29T07:48:41.878Z,21.50
2022-07-29T07:51:19.520Z,21.60
2022-07-29T07:53:52.341Z,21.70
2022-07-29T07:56:26.370Z,21.90
2022-07-29T07:58:59.156Z,22.00
2022-07-29T08:01:48.145Z,22.10
2022-07-29T08:04:28.547Z,22.20
2022-07-29T08:07:03.181Z,22.30
2022-07-29T08:09:36.893Z,22.40
2022-07-29T08:12:09.789Z,22.40
2022-07-29T08:14:42.500Z,22.50
2022-07-29T08:17:15.036Z,22.50
2022-07-29T08:19:49.433Z,22.60
2022-07-29T08:22:22.124Z,22.70
2022-07-29T08:24:56.816Z,22.80
2022-07-29T08:27:43.315Z,22.90
2022-07-29T08:30:16.801Z,23.00
2022-07-29T08:32:54.194Z,23.00
2022-07-29T08:35:32.091Z,23.10
2022-07-29T08:38:10.080Z,23.20
2022-07-29T08:40:43.184Z,23.20
2022-07-29T08:43:15.947Z,23.20
2022-07-29T08:45:51.325Z,23.30
2022-07-29T08:48:25.884Z,23.50
2022-07-29T08:50:59.420Z,23.60
2022-07-29T08:53:33.405Z,23.80
2022-07-29T08:56:07.549Z,23.80
2022-07-29T08:58:40.899Z,23.80
2022-07-29T09:01:19.641Z,23.80
2022-07-29T09:03:56.640Z,23.80
2022-07-29T09:06:34.420Z,23.90
2022-07-29T09:09:09.856Z,24.10
2022-07-29T09:11:43.544Z,24.40
2022-07-29T09:14:16.290Z,24.80
2022-07-29T09:16:55.189Z,25.10
2022-07-29T09:19:32.991Z,25.40
2022-07-29T09:22:07.132Z,25.70
2022-07-29T09:24:45.114Z,25.90
2022-07-29T09:27:27.071Z,26.10
2022-07-29T09:30:08.400Z,26.20
2022-07-29T09:32:59.275Z,26.40
2022-07-29T09:35:32.171Z,26.70
2022-07-29T09:38:16.379Z,26.90
2022-07-29T09:41:05.453Z,27.10
2022-07-29T09:43:43.544Z,27.20
2022-07-29T09:46:16.384Z,27.10
2022-07-29T09:49:11.694Z,26.90
2022-07-29T09:51:44.415Z,26.60
2022-07-29T09:54:27.811Z,26.50
2022-07-29T09:57:00.448Z,26.40
2022-07-29T09:59:34.196Z,26.40
2022-07-29T10:02:17.754Z,26.30
2022-07-29T10:04:56.999Z,26.40
2022-07-29T10:07:51.779Z,26.40
2022-07-29T10:10:37.790Z,26.50
2022-07-29T10:13:16.533Z,26.60
2022-07-29T10:15:52.278Z,26.60
2022-07-29T10:18:24.910Z,26.60
2022-07-29T10:20:58.482Z,26.70
2022-07-29T10:23:46.492Z,26.80
2022-07-29T10:26:21.096Z,27.00
2022-07-29T10:28:53.660Z,27.20
2022-07-29T10:31:37.883Z,27.30
2022-07-29T10:34:35.348Z,27.40
2022-07-29T10:37:29.768Z,27.60
2022-07-29T10:40:47.415Z,27.60
2022-07-29T10:43:37.216Z,27.80
2022-07-29T10:46:11.659Z,27.90
2022-07-29T10:49:24.251Z,28.00
2022-07-29T10:52:01.768Z,28.10
2022-07-29T10:54:42.470Z,28.30
2022-07-29T11:00:17.070Z,28.40
2022-07-29T11:02:53.006Z,28.50
2022-07-29T11:05:32.242Z,28.50
2022-07-29T11:08:21.211Z,28.50
2022-07-29T11:11:25.776Z,28.50
2022-07-29T11:14:02.566Z,28.70
2022-07-29T11:17:03.128Z,28.80
2022-07-29T11:19:44.755Z,28.70
2022-07-29T11:22:36.043Z,28.90
2022-07-29T11:25:18.969Z,29.10
2022-07-29T11:28:22.784Z,29.10
2022-07-29T11:30:59.011Z,29.10
2022-07-29T11:33:37.471Z,29.20
2022-07-29T11:36:28.819Z,29.20
2022-07-29T11:39:27.041Z,29.10
2022-07-29T11:42:28.226Z,29.00
2022-07-29T11:45:42.666Z,28.80
2022-07-29T11:48:28.955Z,28.80
2022-07-29T11:51:11.615Z,28.90
2022-07-29T11:53:52.449Z,29.00
2022-07-29T11:56:32.844Z,29.00
2022-07-29T11:59:08.466Z,29.10
2022-07-29T12:02:12.177Z,29.20
2022-07-29T12:04:56.245Z,29.20
2022-07-29T12:07:35.650Z,29.40
2022-07-29T12:10:11.629Z,29.40
2022-07-29T12:12:53.886Z,29.50
2022-07-29T12:15:45.723Z,29.60
2022-07-29T12:18:24.190Z,29.70
2022-07-29T12:21:05.231Z,29.70
2022-07-29T12:23:52.941Z,29.80
2022-07-29T12:26:25.970Z,29.70
2022-07-29T12:29:20.118Z,29.50
2022-07-29T12:32:14.924Z,29.50
2022-07-29T12:34:54.608Z,29.50
2022-07-29T12:37:33.352Z,29.60
2022-07-29T12:40:35.940Z,29.70
2022-07-29T12:43:19.639Z,29.80
2022-07-29T12:45:55.271Z,29.90
2022-07-29T12:48:42.410Z,30.00
2022-07-29T12:51:18.327Z,30.10
2022-07-29T12:54:32.626Z,30.10
2022-07-29T12:57:19.880Z,30.10
2022-07-29T13:00:11.986Z,30.10
2022-07-29T13:02:44.989Z,30.20
2022-07-29T13:05:26.399Z,29.90
2022-07-29T13:08:29.260Z,29.70
2022-07-29T13:11:04.128Z,29.50
2022-07-29T13:14:05.667Z,29.30
2022-07-29T13:17:05.654Z,29.30
2022-07-29T13:19:50.641Z,29.40
2022-07-29T13:22:25.226Z,29.30
2022-07-29T13:25:07.607Z,29.20
2022-07-29T13:27:40.793Z,28.80
2022-07-29T13:30:16.770Z,28.50
2022-07-29T13:32:49.472Z,28.30
2022-07-29T13:35:22.342Z,28.40
2022-07-29T13:37:54.891Z,28.60
2022-07-29T13:40:27.640Z,28.60
2022-07-29T13:43:00.209Z,28.60
2022-07-29T13:45:33.037Z,28.50
2022-07-29T13:48:07.338Z,28.50
2022-07-29T13:50:40.264Z,28.40
2022-07-29T13:53:17.717Z,28.30
2022-07-29T13:55:52.609Z,28.00
2022-07-29T13:58:28.714Z,27.80
2022-07-29T14:01:47.250Z,27.60
2022-07-29T14:04:19.991Z,27.50
2022-07-29T14:07:08.448Z,27.30
2022-07-29T14:09:58.107Z,27.20
2022-07-29T14:12:30.965Z,27.00
2022-07-29T14:15:04.076Z,26.90
2022-07-29T14:17:36.875Z,26.80
2022-07-29T14:20:09.891Z,26.70
2022-07-29T14:22:45.106Z,26.70
2022-07-29T14:25:19.002Z,26.70
2022-07-29T14:27:55.261Z,26.80
2022-07-29T14:30:31.143Z,26.90
2022-07-29T14:33:04.180Z,26.90
2022-07-29T14:35:53.519Z,27.00
2022-07-29T14:38:29.578Z,27.00
2022-07-29T14:41:05.297Z,27.20
2022-07-29T14:43:38.134Z,27.50
2022-07-29T14:46:12.441Z,27.90
2022-07-29T14:48:47.713Z,28.50
2022-07-29T14:51:20.336Z,29.00
2022-07-29T14:54:02.588Z,29.80
2022-07-29T14:56:46.939Z,30.60
2022-07-29T14:59:20.038Z,31.50
2022-07-29T15:01:52.789Z,32.50
2022-07-29T15:04:25.586Z,33.10
2022-07-29T15:06:58.874Z,33.40
2022-07-29T15:09:40.154Z,33.90
2022-07-29T15:12:13.384Z,34.60
2022-07-29T15:14:48.674Z,34.90
2022-07-29T15:17:21.471Z,35.40
2022-07-29T15:19:54.250Z,35.70
2022-07-29T15:22:26.829Z,35.90
2022-07-29T15:24:59.923Z,36.20
2022-07-29T15:27:32.469Z,36.80
2022-07-29T15:30:33.565Z,37.30
2022-07-29T15:33:07.473Z,37.90
2022-07-29T15:35:40.895Z,37.60
2022-07-29T15:38:13.599Z,36.70
2022-07-29T15:40:47.449Z,36.30
2022-07-29T15:43:20.046Z,36.60
2022-07-29T15:46:11.510Z,37.40
2022-07-29T15:48:45.539Z,38.30
2022-07-29T15:51:18.449Z,39.20
2022-07-29T15:53:53.506Z,39.60
2022-07-29T15:56:26.689Z,40.20
2022-07-29T15:58:59.384Z,40.30
2022-07-29T16:01:33.651Z,40.50
2022-07-29T16:04:07.109Z,40.70
2022-07-29T16:06:39.932Z,41.10
2022-07-29T16:09:12.797Z,41.50
2022-07-29T16:11:50.917Z,40.80
2022-07-29T16:14:23.612Z,39.30
2022-07-29T16:17:03.783Z,37.20
2022-07-29T16:19:36.573Z,35.50
2022-07-29T16:22:11.327Z,34.30
2022-07-29T16:24:44.036Z,34.50
2022-07-29T16:27:16.790Z,35.30
2022-07-29T16:29:50.500Z,35.50
2022-07-29T16:32:23.281Z,35.10
2022-07-29T16:34:55.871Z,34.40
2022-07-29T16:37:33.559Z,34.50
2022-07-29T16:40:11.629Z,34.90
2022-07-29T16:42:46.932Z,35.40
2022-07-29T16:45:21.475Z,35.90
2022-07-29T16:48:00.049Z,36.20
2022-07-29T16:50:33.379Z,36.70
2022-07-29T16:53:06.181Z,37.10
2022-07-29T16:55:42.411Z,37.40
2022-07-29T16:58:15.632Z,37.50
2022-07-29T17:00:48.277Z,37.60
2022-07-29T17:03:21.233Z,37.90
2022-07-29T17:05:54.336Z,37.90
2022-07-29T17:08:27.209Z,37.70
2022-07-29T17:10:59.782Z,37.70
2022-07-29T17:13:32.507Z,38.00
2022-07-29T17:16:05.435Z,37.80
2022-07-29T17:18:38.506Z,37.90
2022-07-29T17:21:11.070Z,37.90
2022-07-29T17:23:44.166Z,37.50
2022-07-29T17:26:17.354Z,38.00
2022-07-29T17:28:50.328Z,38.30
2022-07-29T17:31:23.527Z,38.60
2022-07-29T17:33:59.881Z,38.50
2022-07-29T17:36:33.242Z,37.90
2022-07-29T17:39:08.239Z,36.50
2022-07-29T17:41:41.177Z,34.60
2022-07-29T17:44:14.246Z,33.20
2022-07-29T17:46:47.487Z,32.20
2022-07-29T17:49:20.754Z,31.30
2022-07-29T17:51:55.505Z,30.40
2022-07-29T17:54:33.467Z,29.80
2022-07-29T17:57:06.092Z,29.10
2022-07-29T17:59:38.874Z,28.70
2022-07-29T18:02:12.668Z,28.20
2022-07-29T18:04:45.797Z,27.60
2022-07-29T18:07:24.344Z,26.90
2022-07-29T18:10:00.558Z,26.30
2022-07-29T18:12:33.593Z,25.90
2022-07-29T18:15:06.698Z,25.40
2022-07-29T18:17:57.383Z,24.90
2022-07-29T18:20:31.155Z,24.60
2022-07-29T18:23:03.798Z,24.30
2022-07-29T18:25:36.825Z,24.00
2022-07-29T18:28:09.425Z,23.80
2022-07-29T18:30:42.290Z,23.50
2022-07-29T18:33:22.188Z,23.30
2022-07-29T18:36:11.195Z,23.00
2022-07-29T18:38:44.384Z,22.80
2022-07-29T18:41:17.095Z,22.60
2022-07-29T18:43:49.632Z,22.40
2022-07-29T18:46:22.553Z,22.20
2022-07-29T18:49:02.093Z,22.10
2022-07-29T18:51:35.285Z,21.90
2022-07-29T18:54:09.267Z,21.70
2022-07-29T18:56:42.073Z,21.60
2022-07-29T18:59:17.134Z,21.40
2022-07-29T19:01:50.373Z,21.30
2022-07-29T19:04:23.158Z,21.20
2022-07-29T19:06:56.599Z,21.10
2022-07-29T19:09:29.991Z,21.00
2022-07-29T19:12:03.779Z,20.90
2022-07-29T19:14:36.654Z,20.80
2022-07-29T19:17:09.819Z,20.60
2022-07-29T19:19:42.908Z,20.50
2022-07-29T19:22:15.690Z,20.40
2022-07-29T19:24:49.653Z,20.30
2022-07-29T19:27:22.427Z,20.20
2022-07-29T19:29:59.357Z,20.20
2022-07-29T19:32:38.033Z,20.10
2022-07-29T19:35:33.136Z,20.00
2022-07-29T19:38:09.210Z,19.90
2022-07-29T19:40:41.861Z,19.80
2022-07-29T19:43:51.959Z,19.80
2022-07-29T19:46:16.478Z,19.70
2022-07-29T19:48:49.700Z,19.60
2022-07-29T19:51:23.204Z,19.50
2022-07-29T19:53:56.262Z,19.50
2022-07-29T19:56:30.217Z,19.40
2022-07-29T19:59:03.456Z,19.40
2022-07-29T20:01:40.004Z,19.30
2022-07-29T20:04:12.841Z,19.20
2022-07-29T20:06:57.153Z,19.20
2022-07-29T20:09:30.388Z,19.20
2022-07-29T20:12:04.803Z,19.20
2022-07-29T20:14:38.019Z,19.20
2022-07-29T20:17:10.904Z,19.20
2022-07-29T20:19:43.705Z,19.20
2022-07-29T20:22:21.077Z,19.20
2022-07-29T20:24:54.250Z,19.20
2022-07-29T20:27:26.904Z,19.20
2022-07-29T20:29:59.896Z,19.20
2022-07-29T20:32:32.482Z,19.10
2022-07-29T20:35:05.648Z,19.10
2022-07-29T20:37:52.519Z,19.10
2022-07-29T20:40:31.697Z,19.10
2022-07-29T20:43:05.803Z,19.00
2022-07-29T20:45:38.806Z,18.90
2022-07-29T20:48:11.617Z,18.90
2022-07-29T20:50:45.154Z,18.80
2022-07-29T20:53:19.422Z,18.70
2022-07-29T20:55:52.264Z,18.70
2022-07-29T20:58:24.826Z,18.60
2022-07-29T21:00:57.660Z,18.50
2022-07-29T21:03:30.382Z,18.40
2022-07-29T21:06:03.399Z,18.30
2022-07-29T21:08:36.269Z,18.30
2022-07-29T21:11:09.140Z,18.30
2022-07-29T21:13:41.824Z,18.20
2022-07-29T21:16:17.631Z,18.20
2022-07-29T21:18:51.109Z,18.10
2022-07-29T21:21:24.695Z,18.00
2022-07-29T21:23:57.277Z,18.00
2022-07-29T21:26:30.083Z,17.90
2022-07-29T21:29:09.754Z,17.80
2022-07-29T21:31:48.636Z,17.80
2022-07-29T21:34:39.316Z,17.70
2022-07-29T21:37:52.760Z,17.60
2022-07-29T21:40:23.520Z,17.60
2022-07-29T21:43:08.509Z,17.50
2022-07-29T21:46:28.111Z,17.50
2022-07-29T21:49:01.103Z,17.30
2022-07-29T21:51:42.673Z,17.30
2022-07-29T21:54:19.845Z,17.20
2022-07-29T21:56:59.620Z,17.20
2022-07-29T21:59:33.924Z,17.10
2022-07-29T22:02:12.024Z,17.10
2022-07-29T22:04:48.079Z,17.00
2022-07-29T22:07:20.668Z,17.00
2022-07-29T22:09:53.491Z,16.90
2022-07-29T22:12:26.003Z,16.80
2022-07-29T22:14:58.994Z,16.80
2022-07-29T22:17:31.548Z,16.70
2022-07-29T22:20:05.366Z,16.60
2022-07-29T22:22:37.951Z,16.60
2022-07-29T22:25:11.175Z,16.60
2022-07-29T22:27:44.043Z,16.50
2022-07-29T22:30:17.457Z,16.50
2022-07-29T22:32:50.196Z,16.40
2022-07-29T22:35:23.200Z,16.40
2022-07-29T22:37:55.761Z,16.40
2022-07-29T22:40:30.910Z,16.30
2022-07-29T22:43:05.168Z,16.20
2022-07-29T22:45:38.035Z,16.20
2022-07-29T22:48:10.699Z,16.10
2022-07-29T22:50:44.274Z,16.10
2022-07-29T22:53:16.884Z,16.10
2022-07-29T22:55:51.357Z,16.10
2022-07-29T22:58:23.884Z,16.00
2022-07-29T23:00:56.637Z,16.00
2022-07-29T23:03:29.300Z,16.00
2022-07-29T23:06:02.049Z,15.90
2022-07-29T23:08:35.116Z,15.90
2022-07-29T23:11:08.136Z,15.90
2022-07-29T23:13:40.713Z,15.90
2022-07-29T23:16:13.487Z,15.90
2022-07-29T23:18:47.136Z,15.90
2022-07-29T23:21:20.942Z,15.80
2022-07-29T23:23:53.548Z,15.90
2022-07-29T23:26:26.641Z,15.90
2022-07-29T23:28:59.171Z,15.90
2022-07-29T23:31:32.229Z,15.90
2022-07-29T23:34:04.816Z,15.80
2022-07-29T23:36:37.812Z,15.90
2022-07-29T23:39:13.523Z,15.80
2022-07-29T23:41:46.236Z,15.80
2022-07-29T23:44:18.793Z,15.80
2022-07-29T23:46:51.815Z,15.80
2022-07-29T23:49:24.434Z,15.70
2022-07-29T23:51:57.216Z,15.70
2022-07-29T23:54:29.839Z,15.60
2022-07-29T23:57:03.186Z,15.60
2022-07-29T23:59:36.038Z,15.60
